AirNav   Air Wisconsin Up To $57,000 Bonus
 
 1543 users online  

92MU Parks Field Airport
Smithville, Missouri, USA

GOING TO SMITHVILLE?


FAA INFORMATION EFFECTIVE 03 NOVEMBER 2022

Location

FAA Identifier: 92MU
Lat/Long: 39-24-32.8300N 094-36-22.4200W
39-24.547167N 094-36.373667W
39.4091194,-94.6062278
(estimated)
Elevation: 847 ft. / 258 m (estimated)
From city: 2 miles NW of SMITHVILLE, MO
Time zone: UTC -6 (UTC -5 during Daylight Saving Time)
Zip code: 64089

Airport Operations

Airport use: Private use. Permission required prior to landing
Activation date: 08/2019
Control tower: no
ARTCC: KANSAS CITY CENTER
FSS: SAINT LOUIS FLIGHT SERVICE STATION
Attendance: 
Segmented circle: no

Airport Communications

WX ASOS at MCI (8 nm SW): PHONE 816-329-2808
WX AWOS-3T at GPH (15 nm E): 120.275 (816-407-3399)
WX ASOS at MKC (17 nm S): 120.75 (816-329-2843)

Nearby radio navigation aids

VOR radial/distance  VOR name  Freq  Var
MCIr034/9.6KANSAS CITY VORTAC113.2505E
ANXr303/29.1NAPOLEON VORTAC114.0007E
STJr148/36.2ST JOSEPH VORTAC115.5008E
BQSr246/36.3BRAYMER VOR/DME115.3503E

 
NDB name  Hdg/Dist  Freq  Var  ID
AMAZON150/31.723304EAZN .- --.. -.

Airport Services

Runway Information

Runway 18/36

Dimensions: 2000 x 60 ft. / 610 x 18 m
Surface: turf
RUNWAY 18  RUNWAY 36
Latitude: 39-24.712167N39-24.382833N
Longitude: 094-36.369333W094-36.378333W
Elevation: 847.0 ft.829.0 ft.
Traffic pattern: leftleft

Airport Ownership and Management from official FAA records

Ownership: Privately-owned
Owner: DOUGLAS PARKS
2290 COUNTY ROAD KK
SMITHVILLE, MO 64089
Phone 816-210-5519
Manager: DOUGLAS PARKS
2290 COUNTY ROAD KK
SMITHVILLE, MO 64089
Phone 816-210-5519

Instrument Procedures

There are no published instrument procedures at 92MU.

Some nearby airports with instrument procedures:

KMCI - Kansas City International Airport (8 nm SW)
KFLV - Sherman Army Airfield (15 nm W)
KGPH - Midwest National Air Center Airport (15 nm E)
KMKC - Charles B Wheeler Downtown Airport (17 nm S)
3EX - Excelsior Springs Memorial Airport (19 nm E)
 
Loc | Ops | Rwys | IFR | FBO | Links
Com | Nav | Svcs | Stats | Notes
Aerial photo
No photo
 
Airport distance calculator
Flying to Parks Field Airport? Find the distance to fly.

From to 92MU

Sunrise and sunset
Times for 29-Nov-2022
 Local
(UTC-6)
 Zulu
(UTC)
Morning civil twilight06:4912:49
Sunrise07:1813:18
Sunset16:5522:55
Evening civil twilight17:2523:25

Current date and time
Zulu (UTC)  29-Nov-2022 18:39:07
Local (UTC-6)  29-Nov-2022 12:39:07
 
METAR
KMCI 
9nm SW 
291815Z 30024G35KT 10SM BKN015 BKN055 04/00 A2955 RMK AO2 PK WND 30035/1815 T00440000
KGPH 
15nm E 
291715Z AUTO 23019G23KT 10SM SCT037 15/05 A2947 RMK AO2
KMKC 
18nm S 
291754Z 26012G28KT 10SM CLR 13/03 A2950 RMK AO2 PK WND 26030/1721 SLP988 60000 T01330033 10156 20094 51021
TAF
KMCI 
9nm SW 
291728Z 2918/3018 29015G25KT P6SM BKN018 FM300100 32014G24KT P6SM SCT070 FM301200 30010KT P6SM SKC
KMKC 
18nm S 
291728Z 2918/3018 29016G26KT P6SM BKN018 FM300100 32013G23KT P6SM SCT070 FM301200 30010KT P6SM SKC
NOTAMs
Click for the latest NOTAMs
NOTAMs are issued by the DoD/FAA and will open in a separate window not controlled by AirNav.

 

 
 

Would you like to see your business listed on this page?

 If your business provides an interesting product or service to pilots, flight crews, aircraft, or users of the Parks Field Airport, you should consider listing it here.  To start the listing process, click on the button below
 
Add a business
 

Other Pages about Parks Field Airport

Update a link
 
Copyright © AirNav, LLC. All rights reserved. Privacy Policy  Contact